Time;durP1;ratioP1;P1;durP2;ratioP2;P2;SDS_P1;SDS_P2;PMS_P1;PMS_P2;Temp;Humidity;BMP_temperature;BMP_pressure;BME280_temperature;BME280_humidity;BME280_pressure;Samples;Min_cycle;Max_cycle;Signal;HPM_P1;HPM_P2
2021/09/10 00:02:13;;;;;;;11.18;6.87;;;;;;;12.06;67.64;99501.86;1722410;81;21093;-62
2021/09/10 00:04:40;;;;;;;7.90;6.17;;;;;;;12.06;67.56;99504.47;1720988;81;20932;-61
2021/09/10 00:07:06;;;;;;;9.18;6.40;;;;;;;12.01;67.65;99502.58;1708172;82;21444;-61
2021/09/10 00:09:33;;;;;;;11.28;6.33;;;;;;;11.97;67.55;99500.61;1708833;82;21000;-62
2021/09/10 00:11:59;;;;;;;9.35;7.08;;;;;;;11.88;67.56;99504.22;1708123;82;20987;-62
2021/09/10 00:14:26;;;;;;;8.25;5.80;;;;;;;11.76;67.63;99502.64;1722274;82;21052;-62
2021/09/10 00:16:52;;;;;;;12.88;7.33;;;;;;;11.70;67.78;99502.95;1751223;80;20952;-61
2021/09/10 00:19:20;;;;;;;9.48;6.40;;;;;;;11.66;67.86;99504.06;1755788;80;20961;-61
2021/09/10 00:21:46;;;;;;;10.50;6.58;;;;;;;11.61;67.86;99498.23;1759780;80;20986;-61
2021/09/10 00:24:13;;;;;;;12.82;5.92;;;;;;;11.60;68.10;99501.79;1765305;80;20923;-61
2021/09/10 00:26:40;;;;;;;10.73;7.37;;;;;;;11.61;68.16;99501.69;1749898;80;21706;-61
2021/09/10 00:29:06;;;;;;;14.23;7.33;;;;;;;11.59;68.05;99497.47;1762152;80;21446;-62
2021/09/10 00:31:33;;;;;;;12.00;7.10;;;;;;;11.49;68.13;99497.61;1744803;80;20876;-61
2021/09/10 00:34:00;;;;;;;15.40;6.57;;;;;;;11.21;68.27;99495.18;1754259;80;20912;-62
2021/09/10 00:36:26;;;;;;;10.07;6.57;;;;;;;11.21;68.27;99495.18;1743736;80;21709;-61
2021/09/10 00:38:53;;;;;;;13.90;6.70;;;;;;;11.07;68.27;99495.07;1759559;80;21431;-61
2021/09/10 00:41:20;;;;;;;13.78;7.08;;;;;;;10.93;68.47;99501.02;1739188;80;21098;-61
2021/09/10 00:43:46;;;;;;;12.40;6.80;;;;;;;10.80;68.64;99495.58;1748134;80;20938;-61
2021/09/10 00:46:13;;;;;;;9.83;7.17;;;;;;;10.71;68.77;99499.50;1750048;80;20962;-61
2021/09/10 00:48:41;;;;;;;8.80;6.28;;;;;;;10.62;68.84;99499.14;1743888;80;20923;-61
2021/09/10 00:51:09;;;;;;;12.23;6.80;;;;;;;10.55;68.95;99502.98;1753697;80;21058;-61
2021/09/10 00:53:36;;;;;;;11.97;6.62;;;;;;;10.49;69.05;99499.75;1719617;80;20919;-61
2021/09/10 00:56:03;;;;;;;7.20;5.95;;;;;;;10.46;69.18;99497.30;1751792;79;21022;-61
2021/09/10 00:58:29;;;;;;;9.70;6.97;;;;;;;10.43;69.29;99502.67;1759430;79;20920;-62
2021/09/10 01:00:57;;;;;;;10.57;8.00;;;;;;;10.42;69.42;99506.22;1764519;79;20915;-61
2021/09/10 01:03:23;;;;;;;11.05;6.80;;;;;;;10.41;69.43;99504.51;1775042;79;21099;-61
2021/09/10 01:05:51;;;;;;;13.32;7.20;;;;;;;10.42;69.60;99506.22;1765644;79;20988;-61
2021/09/10 01:08:18;;;;;;;10.08;7.17;;;;;;;10.42;69.64;99508.83;1766952;79;20903;-61
2021/09/10 01:10:49;;;;;;;8.78;7.30;;;;;;;10.40;69.71;99510.66;1778934;79;20903;-61
2021/09/10 01:13:14;;;;;;;13.38;8.33;;;;;;;10.38;69.75;99508.58;1768878;79;21521;-61
2021/09/10 01:15:41;;;;;;;16.05;7.55;;;;;;;10.36;69.81;99503.89;1767649;79;21452;-61
2021/09/10 01:18:07;;;;;;;17.00;7.97;;;;;;;10.32;69.86;99507.59;1698576;82;20908;-61
2021/09/10 01:20:34;;;;;;;9.75;7.37;;;;;;;10.26;69.94;99497.42;1763406;80;20931;-61
2021/09/10 01:23:01;;;;;;;10.65;7.20;;;;;;;10.16;69.93;99501.39;1749505;80;20877;-61
2021/09/10 01:25:28;;;;;;;11.00;7.93;;;;;;;10.09;70.11;99499.09;1758099;80;20971;-61
2021/09/10 01:27:58;;;;;;;8.48;6.90;;;;;;;10.03;70.21;99499.39;1751024;80;21027;-62
2021/09/10 01:30:30;;;;;;;11.08;7.80;;;;;;;9.99;70.25;99499.61;1759290;80;20865;-61
2021/09/10 01:32:58;;;;;;;15.65;7.30;;;;;;;9.95;70.44;99503.30;1766634;79;21532;-61
2021/09/10 01:35:25;;;;;;;15.25;8.25;;;;;;;9.90;70.53;99505.27;1769255;80;20860;-61
2021/09/10 01:37:54;;;;;;;10.60;7.33;;;;;;;9.84;70.57;99509.02;1755324;80;20965;-60
2021/09/10 01:40:22;;;;;;;10.38;7.45;;;;;;;9.79;70.71;99511.00;1758555;80;21845;-61
2021/09/10 01:42:49;;;;;;;10.75;7.83;;;;;;;9.79;70.85;99513.60;1767830;80;20958;-61
2021/09/10 01:45:16;;;;;;;11.90;7.03;;;;;;;9.81;70.94;99507.87;1760809;80;20923;-60
2021/09/10 01:47:43;;;;;;;7.72;6.92;;;;;;;9.82;70.98;99508.24;1697467;83;20958;-60
2021/09/10 01:50:13;;;;;;;11.73;7.53;;;;;;;9.83;71.13;99515.14;1756630;80;21011;-60
2021/09/10 01:52:41;;;;;;;11.43;8.15;;;;;;;9.82;71.16;99521.28;1762577;80;21037;-60
2021/09/10 01:55:10;;;;;;;8.48;7.25;;;;;;;9.80;71.21;99516.59;1769932;80;21470;-61
2021/09/10 01:57:37;;;;;;;10.30;6.75;;;;;;;9.79;71.33;99518.82;1705440;81;20919;-61
2021/09/10 02:00:05;;;;;;;9.23;6.80;;;;;;;9.76;71.37;99517.66;1728718;81;20964;-60
2021/09/10 02:02:32;;;;;;;10.30;8.03;;;;;;;9.72;71.35;99513.06;1723582;81;20897;-61
2021/09/10 02:04:58;;;;;;;14.23;7.50;;;;;;;9.70;71.50;99516.66;1727869;81;21079;-61
2021/09/10 02:07:25;;;;;;;8.98;6.60;;;;;;;9.66;71.49;99512.02;1724746;81;21415;-60
2021/09/10 02:09:51;;;;;;;13.18;7.30;;;;;;;9.59;71.59;99512.77;1729127;81;20936;-61
2021/09/10 02:12:18;;;;;;;11.57;6.75;;;;;;;9.54;71.72;99517.35;1726769;82;20872;-61
2021/09/10 02:14:45;;;;;;;7.70;6.80;;;;;;;9.49;71.84;99511.50;1726261;81;20959;-60
2021/09/10 02:17:11;;;;;;;10.28;7.28;;;;;;;9.50;72.08;99518.42;1726483;81;21042;-61
2021/09/10 02:19:38;;;;;;;13.90;7.12;;;;;;;9.50;72.19;99505.39;1726732;81;20902;-61
2021/09/10 02:22:05;;;;;;;11.43;8.60;;;;;;;9.57;72.35;99511.99;1727203;81;20964;-61
2021/09/10 02:24:32;;;;;;;9.30;7.75;;;;;;;9.62;72.37;99511.79;1727012;82;28024;-60
2021/09/10 02:26:59;;;;;;;15.00;7.10;;;;;;;9.66;72.49;99507.27;1725325;81;20932;-61
2021/09/10 02:29:25;;;;;;;10.65;7.10;;;;;;;9.72;72.59;99505.67;1724830;82;21835;-61
2021/09/10 02:31:52;;;;;;;11.15;8.38;;;;;;;9.79;72.65;99504.48;1726651;81;21408;-61
2021/09/10 02:34:18;;;;;;;10.65;8.25;;;;;;;9.84;72.70;99502.03;1722394;81;21493;-61
2021/09/10 02:36:45;;;;;;;14.23;7.92;;;;;;;9.92;72.72;99501.68;1724206;82;20948;-61
2021/09/10 02:39:12;;;;;;;15.10;9.55;;;;;;;9.97;72.64;99502.31;1722567;81;20897;-61
2021/09/10 02:41:39;;;;;;;12.07;8.03;;;;;;;9.97;72.66;99502.31;1729684;81;21069;-60
2021/09/10 02:44:08;;;;;;;8.00;7.00;;;;;;;10.05;72.72;99496.70;1726498;82;20984;-61
2021/09/10 02:46:35;;;;;;;13.10;10.03;;;;;;;10.12;72.75;99502.48;1728498;81;20834;-61
2021/09/10 02:49:02;;;;;;;11.25;7.37;;;;;;;10.28;72.94;99493.02;1701240;81;20987;-61
2021/09/10 02:51:29;;;;;;;13.00;8.30;;;;;;;10.40;72.84;99491.55;1728364;81;20908;-61
2021/09/10 02:53:55;;;;;;;12.37;7.63;;;;;;;10.47;72.87;99492.48;1724354;81;21048;-61
2021/09/10 02:56:22;;;;;;;11.97;7.87;;;;;;;10.55;72.86;99491.23;1729788;81;21081;-61
2021/09/10 02:58:49;;;;;;;9.27;7.70;;;;;;;10.65;73.02;99488.55;1699554;82;21426;-61
2021/09/10 03:01:16;;;;;;;12.88;8.05;;;;;;;10.71;72.81;99485.14;1744277;80;20889;-61
2021/09/10 03:03:43;;;;;;;9.00;6.90;;;;;;;10.72;72.86;99482.06;1747286;80;20904;-61
2021/09/10 03:06:09;;;;;;;9.00;7.65;;;;;;;10.75;72.83;99483.21;1743179;80;21691;-61
2021/09/10 03:08:36;;;;;;;11.33;8.50;;;;;;;10.73;72.97;99486.39;1741604;80;20966;-61
2021/09/10 03:11:03;;;;;;;10.88;8.03;;;;;;;10.82;73.14;99483.29;1759307;80;20910;-61
2021/09/10 03:13:29;;;;;;;11.88;7.25;;;;;;;10.85;73.01;99485.73;1743839;80;20924;-61
2021/09/10 03:15:56;;;;;;;14.33;8.68;;;;;;;10.91;72.90;99487.19;1734531;80;21366;-61
2021/09/10 03:18:22;;;;;;;13.32;7.08;;;;;;;10.91;73.05;99481.49;1751149;80;21895;-61
2021/09/10 03:20:49;;;;;;;8.58;7.50;;;;;;;10.96;72.86;99483.41;1738719;80;20942;-61
2021/09/10 03:23:15;;;;;;;9.93;8.38;;;;;;;10.89;72.95;99479.41;1760525;80;20915;-61
2021/09/10 03:25:42;;;;;;;11.15;8.50;;;;;;;10.90;73.00;99478.98;1748024;80;20908;-61
2021/09/10 03:28:08;;;;;;;12.45;8.80;;;;;;;10.95;73.10;99480.42;1754151;80;21081;-61
2021/09/10 03:30:35;;;;;;;15.05;9.18;;;;;;;10.94;73.03;99480.02;1749874;80;21407;-61
2021/09/10 03:33:02;;;;;;;11.93;8.65;;;;;;;10.87;72.81;99482.59;1753300;80;20873;-61
2021/09/10 03:35:28;;;;;;;11.57;7.57;;;;;;;10.79;72.93;99480.84;1750097;80;20898;-61
2021/09/10 03:37:55;;;;;;;18.52;7.28;;;;;;;10.74;72.91;99480.23;1750893;80;20941;-61
2021/09/10 03:40:21;;;;;;;8.28;6.92;;;;;;;10.55;72.65;99479.48;1737404;80;20943;-61
2021/09/10 03:42:48;;;;;;;9.48;6.80;;;;;;;10.34;72.70;99480.96;1760244;80;21058;-61
2021/09/10 03:45:15;;;;;;;17.77;7.60;;;;;;;10.15;72.86;99474.47;1762488;80;20899;-61
2021/09/10 03:47:41;;;;;;;9.50;7.45;;;;;;;10.00;73.10;99486.51;1751911;80;21057;-61
2021/09/10 03:50:09;;;;;;;17.25;7.15;;;;;;;9.90;73.39;99482.64;1752106;80;20908;-61
2021/09/10 03:52:35;;;;;;;14.87;7.62;;;;;;;9.84;73.46;99480.34;1750051;80;21373;-61
2021/09/10 03:55:02;;;;;;;14.70;8.77;;;;;;;9.76;73.54;99476.78;1755929;80;20933;-61
2021/09/10 03:57:28;;;;;;;11.10;7.33;;;;;;;9.72;73.69;99478.30;1748856;80;21025;-62
2021/09/10 03:59:55;;;;;;;11.35;7.50;;;;;;;9.68;73.82;99475.47;1763702;80;21411;-61
2021/09/10 04:02:22;;;;;;;18.73;7.37;;;;;;;9.64;73.88;99479.52;1757596;80;21007;-62
2021/09/10 04:04:49;;;;;;;18.07;7.90;;;;;;;9.63;73.97;99479.58;1752874;80;21481;-62
2021/09/10 04:07:15;;;;;;;9.37;7.43;;;;;;;9.59;74.04;99476.28;1756806;80;21075;-62
2021/09/10 04:09:42;;;;;;;21.97;7.30;;;;;;;9.56;74.09;99484.25;1750826;80;20899;-61
2021/09/10 04:12:08;;;;;;;17.23;7.83;;;;;;;9.55;74.22;99474.75;1750147;80;20914;-63
2021/09/10 04:14:35;;;;;;;19.27;9.37;;;;;;;9.55;74.33;99474.75;1753757;80;21536;-61
2021/09/10 04:17:02;;;;;;;27.42;8.18;;;;;;;9.55;74.33;99478.66;1755437;80;21093;-61
2021/09/10 04:19:28;;;;;;;64.50;10.50;;;;;;;9.53;74.32;99473.97;1760571;80;22342;-62
2021/09/10 04:21:55;;;;;;;35.08;9.30;;;;;;;9.51;74.31;99476.26;1755259;80;20924;-61
2021/09/10 04:24:21;;;;;;;31.03;9.80;;;;;;;9.51;74.43;99482.77;1767109;80;20938;-61
2021/09/10 04:26:48;;;;;;;35.07;9.80;;;;;;;9.63;74.62;99480.45;1751694;80;20908;-62
2021/09/10 04:29:15;;;;;;;36.20;9.17;;;;;;;9.91;74.71;99480.88;1750657;80;20908;-61
2021/09/10 04:31:41;;;;;;;65.87;11.73;;;;;;;10.25;74.78;99474.84;1753311;80;21143;-62
2021/09/10 04:34:08;;;;;;;41.53;9.58;;;;;;;10.71;74.79;99473.86;1753777;80;20914;-61
2021/09/10 04:36:35;;;;;;;51.50;11.87;;;;;;;11.17;74.59;99471.42;1762982;80;20950;-62
2021/09/10 04:39:04;;;;;;;139.47;18.50;;;;;;;11.66;74.32;99479.22;1756652;80;21432;-62
2021/09/10 04:41:30;;;;;;;77.80;13.40;;;;;;;12.18;74.23;99480.20;1761146;80;21520;-62
2021/09/10 04:43:58;;;;;;;69.42;14.68;;;;;;;12.70;73.80;99474.53;1766519;80;21039;-62
2021/09/10 04:46:25;;;;;;;120.17;17.07;;;;;;;13.27;73.84;99480.74;1765284;80;20957;-63
2021/09/10 04:48:51;;;;;;;114.03;21.17;;;;;;;13.91;73.54;99477.96;1763680;80;21522;-63
2021/09/10 04:51:18;;;;;;;87.87;17.10;;;;;;;14.45;73.26;99470.03;1755238;80;20895;-60
2021/09/10 04:53:44;;;;;;;91.87;18.47;;;;;;;14.92;73.00;99469.89;1749041;80;20944;-60
2021/09/10 04:56:11;;;;;;;106.43;18.98;;;;;;;15.50;72.93;99470.22;1752876;80;21873;-61
2021/09/10 04:58:38;;;;;;;101.30;21.20;;;;;;;16.11;72.62;99471.53;1732348;81;20941;-60
2021/09/10 05:01:04;;;;;;;70.32;18.70;;;;;;;16.57;72.01;99469.38;1729025;81;21527;-61
2021/09/10 05:03:31;;;;;;;84.50;21.40;;;;;;;16.95;71.73;99468.28;1723452;81;20904;-60
2021/09/10 05:05:58;;;;;;;90.75;21.33;;;;;;;17.34;71.43;99466.11;1728758;81;21009;-61
2021/09/10 05:08:25;;;;;;;88.22;21.50;;;;;;;17.66;70.99;99464.35;1724185;82;21084;-61
2021/09/10 05:10:51;;;;;;;87.35;20.37;;;;;;;18.01;70.83;99465.97;1725827;81;20881;-61
2021/09/10 05:13:18;;;;;;;120.95;22.37;;;;;;;18.50;71.04;99463.19;1722361;81;21443;-61
2021/09/10 05:15:44;;;;;;;141.12;24.52;;;;;;;18.99;70.83;99457.73;1728032;81;20900;-61
2021/09/10 05:18:11;;;;;;;134.90;24.05;;;;;;;19.47;70.44;99459.36;1724722;81;20921;-61
2021/09/10 05:20:41;;;;;;;203.92;29.42;;;;;;;19.88;69.97;99456.52;1723647;81;21048;-60
2021/09/10 05:23:08;;;;;;;307.67;37.45;;;;;;;20.16;69.71;99457.97;1687874;82;21509;-61
2021/09/10 05:25:35;;;;;;;261.73;33.05;;;;;;;20.47;69.17;99457.80;1729781;81;21775;-61
2021/09/10 05:28:04;;;;;;;313.25;36.48;;;;;;;20.71;68.84;99464.83;1724398;81;21010;-60
2021/09/10 05:30:30;;;;;;;558.87;61.23;;;;;;;21.15;68.93;99462.95;1727581;82;20970;-60
2021/09/10 05:32:57;;;;;;;361.30;41.73;;;;;;;21.60;68.75;99463.02;1725305;81;27052;-62
2021/09/10 05:35:24;;;;;;;351.25;41.00;;;;;;;21.84;67.64;99468.23;1722803;81;21476;-62
2021/09/10 05:37:51;;;;;;;387.60;45.17;;;;;;;21.70;66.79;99460.28;1723781;81;20929;-62
2021/09/10 05:40:17;;;;;;;287.45;37.25;;;;;;;21.63;66.67;99462.72;1727261;81;20970;-62
2021/09/10 05:42:45;;;;;;;203.18;29.02;;;;;;;21.75;66.43;99466.48;1724811;81;20933;-61
2021/09/10 05:45:12;;;;;;;223.38;29.57;;;;;;;21.81;66.09;99472.52;1675292;81;21223;-62
2021/09/10 05:47:39;;;;;;;213.97;28.62;;;;;;;21.84;65.76;99466.91;1724949;81;20939;-62
2021/09/10 05:50:07;;;;;;;266.38;32.17;;;;;;;21.89;65.55;99464.63;1728257;81;20931;-62
2021/09/10 05:52:35;;;;;;;199.32;24.70;;;;;;;21.91;65.36;99466.66;1724044;81;21025;-62
2021/09/10 05:55:06;;;;;;;195.45;24.82;;;;;;;21.98;65.17;99465.55;1726491;81;21480;-61
2021/09/10 05:57:35;;;;;;;283.85;31.62;;;;;;;22.07;64.91;99466.81;1725281;81;21598;-61
2021/09/10 06:00:03;;;;;;;210.82;28.23;;;;;;;22.21;64.46;99465.94;1674285;83;21466;-61
2021/09/10 06:02:31;;;;;;;199.65;24.82;;;;;;;22.33;64.31;99467.39;1692783;82;21320;-61
2021/09/10 06:04:58;;;;;;;172.98;22.85;;;;;;;22.45;64.28;99468.80;1692011;83;21109;-61
2021/09/10 06:07:25;;;;;;;364.30;36.25;;;;;;;22.55;64.11;99471.38;1695432;82;21541;-61
2021/09/10 06:09:52;;;;;;;297.80;30.45;;;;;;;22.58;63.75;99470.23;1678326;83;21907;-62
2021/09/10 06:12:23;;;;;;;245.55;28.77;;;;;;;22.62;63.36;99468.92;1704297;82;20962;-61
2021/09/10 06:14:49;;;;;;;190.47;23.32;;;;;;;22.64;63.03;99466.95;1703752;82;20931;-61
2021/09/10 06:17:21;;;;;;;107.20;17.07;;;;;;;22.65;63.03;99469.94;1700594;82;20934;-61
2021/09/10 06:19:44;;;;;;;50.52;13.18;;;;;;;22.77;62.98;99472.70;1692153;82;21655;-61
2021/09/10 06:22:13;;;;;;;59.30;13.80;;;;;;;22.94;62.50;99466.47;1691790;82;21122;-61
2021/09/10 06:24:40;;;;;;;72.15;15.20;;;;;;;23.06;62.37;99470.22;1705461;82;20968;-61
2021/09/10 06:27:07;;;;;;;49.08;12.07;;;;;;;23.20;62.18;99472.28;1700698;82;20940;-61
2021/09/10 06:29:37;;;;;;;79.17;15.93;;;;;;;23.33;61.69;99468.69;1701179;82;21485;-61
2021/09/10 06:32:09;;;;;;;85.45;15.85;;;;;;;23.36;61.49;99472.36;1697312;82;21945;-61
2021/09/10 06:34:34;;;;;;;69.35;13.75;;;;;;;23.50;61.31;99466.05;1691779;82;22175;-61
2021/09/10 06:37:01;;;;;;;58.95;12.28;;;;;;;23.86;61.25;99467.53;1701252;82;20933;-60
2021/09/10 06:39:28;;;;;;;;;;;;;;;24.18;61.12;99467.22;1702405;82;20903;-61
2021/09/10 06:41:57;;;;;;;39.98;10.93;;;;;;;24.35;60.17;99464.88;1699636;82;20133;-61
2021/09/10 06:44:24;;;;;;;49.93;11.57;;;;;;;24.46;60.21;99466.92;1675675;83;20920;-61
2021/09/10 06:46:50;;;;;;;42.08;10.70;;;;;;;24.61;60.18;99469.22;1704744;82;21873;-63
2021/09/10 06:49:17;;;;;;;;;;;;;;;24.83;59.98;99474.86;1711103;82;20978;-62
2021/09/10 06:51:47;;;;;;;30.60;9.33;;;;;;;25.00;59.76;99470.64;1694390;83;20124;-62
2021/09/10 06:54:17;;;;;;;31.10;9.70;;;;;;;25.18;59.56;99474.47;1694791;83;20947;-62
2021/09/10 06:56:43;;;;;;;17.17;8.20;;;;;;;25.51;59.76;99476.98;1696935;82;21010;-62
2021/09/10 06:59:16;;;;;;;17.73;7.92;;;;;;;25.76;59.37;99474.17;1700687;82;21493;-63
2021/09/10 07:01:40;;;;;;;15.83;7.97;;;;;;;25.94;58.86;99478.78;1709677;82;21421;-63
2021/09/10 07:04:07;;;;;;;16.35;7.40;;;;;;;26.11;58.79;99478.16;1713088;82;20875;-62
2021/09/10 07:06:33;;;;;;;;;;;;;;;26.23;58.06;99475.89;1722736;81;20936;-62
2021/09/10 07:09:00;;;;;;;32.00;8.35;;;;;;;26.05;57.53;99479.70;1695486;83;20092;-62
2021/09/10 07:11:26;;;;;;;;;;;;;;;25.85;57.80;99485.17;1753353;80;21842;-62
2021/09/10 07:13:53;;;;;;;50.60;10.40;;;;;;;25.59;57.15;99487.62;1755788;79;20114;-62
2021/09/10 07:16:20;;;;;;;71.37;10.40;;;;;;;25.37;57.26;99492.41;1750703;80;20919;-61
2021/09/10 07:18:46;;;;;;;46.10;9.65;;;;;;;25.25;57.42;99484.45;1748951;80;20952;-61
2021/09/10 07:21:13;;;;;;;34.63;9.05;;;;;;;24.99;57.07;99497.02;1756422;80;21509;-62
2021/09/10 07:23:40;;;;;;;44.27;9.88;;;;;;;24.94;57.17;99486.52;1756535;78;21935;-62
2021/09/10 07:26:06;;;;;;;32.40;7.70;;;;;;;24.70;56.72;99486.91;1757296;80;20915;-62
2021/09/10 07:28:34;;;;;;;;;;;;;;;24.57;56.56;99489.26;1760744;80;20901;-62
2021/09/10 07:31:01;;;;;;;24.00;6.90;;;;;;;24.45;56.46;99493.25;1754359;80;20757;-62
2021/09/10 07:33:28;;;;;;;27.67;8.08;;;;;;;24.51;56.88;99487.27;1755952;80;21509;-62
2021/09/10 07:35:54;;;;;;;15.93;6.50;;;;;;;24.66;56.60;99482.90;1757244;80;21030;-61
2021/09/10 07:38:21;;;;;;;20.82;6.80;;;;;;;24.67;56.39;99489.06;1735442;81;21441;-61
2021/09/10 07:40:48;;;;;;;43.78;7.50;;;;;;;24.69;56.15;99489.73;1755779;80;20903;-62
2021/09/10 07:43:14;;;;;;;32.67;7.50;;;;;;;24.79;56.43;99491.23;1753867;80;20910;-62
2021/09/10 07:45:41;;;;;;;29.32;6.75;;;;;;;24.99;56.19;99493.53;1753207;80;20981;-61
2021/09/10 07:48:07;;;;;;;20.15;5.70;;;;;;;25.09;56.14;99488.80;1753980;80;21052;-62
2021/09/10 07:50:34;;;;;;;15.80;5.75;;;;;;;25.22;56.03;99489.13;1754425;80;20911;-61
2021/09/10 07:53:01;;;;;;;18.60;5.47;;;;;;;25.17;55.31;99494.16;1752271;80;24726;-61
2021/09/10 07:55:27;;;;;;;29.15;6.53;;;;;;;25.09;55.38;99490.64;1747315;80;26967;-61
2021/09/10 07:57:54;;;;;;;26.25;5.92;;;;;;;25.10;55.42;99493.16;1745517;80;20971;-61
2021/09/10 08:00:21;;;;;;;34.85;6.67;;;;;;;25.13;54.93;99494.66;1736113;80;21090;-61
2021/09/10 08:02:49;;;;;;;21.15;5.25;;;;;;;25.17;55.01;99493.33;1742809;80;20990;-61
2021/09/10 08:05:17;;;;;;;14.80;4.83;;;;;;;25.25;54.92;99498.64;1740358;80;20860;-62
2021/09/10 08:07:44;;;;;;;15.18;5.83;;;;;;;25.37;54.72;99497.75;1740132;80;20977;-61
2021/09/10 08:10:14;;;;;;;25.62;5.47;;;;;;;25.44;54.55;99501.41;1741212;80;20950;-61
2021/09/10 08:12:45;;;;;;;18.87;5.50;;;;;;;25.47;54.30;99502.41;1736020;80;21290;-62
2021/09/10 08:15:13;;;;;;;13.78;5.10;;;;;;;25.55;54.12;99500.20;1734304;80;20919;-61
2021/09/10 08:17:40;;;;;;;16.93;5.40;;;;;;;25.59;53.95;99502.84;1732192;80;20896;-61
2021/09/10 08:20:08;;;;;;;;;;;;;;;25.61;53.38;99501.66;1745830;78;20980;-61
2021/09/10 08:22:35;;;;;;;10.78;4.85;;;;;;;25.57;53.45;99497.69;1737437;80;20095;-62
2021/09/10 08:25:05;;;;;;;12.10;4.47;;;;;;;25.61;53.08;99504.34;1739561;80;20991;-62
2021/09/10 08:27:31;;;;;;;8.18;4.15;;;;;;;25.57;53.11;99502.17;1743598;80;20922;-62
2021/09/10 08:29:58;;;;;;;13.83;5.03;;;;;;;25.59;52.71;99506.34;1739181;80;20863;-61
2021/09/10 08:32:25;;;;;;;13.55;4.17;;;;;;;25.60;52.73;99501.34;1735057;80;20906;-61
2021/09/10 08:34:53;;;;;;;10.38;4.80;;;;;;;25.66;52.20;99501.98;1740248;80;20875;-62
2021/09/10 08:37:20;;;;;;;12.00;4.45;;;;;;;25.57;52.00;99497.69;1742357;80;21863;-62
2021/09/10 08:39:47;;;;;;;14.23;4.92;;;;;;;25.53;52.10;99493.68;1751038;80;21449;-62
2021/09/10 08:42:14;;;;;;;11.78;4.40;;;;;;;25.59;51.85;99498.33;1738725;80;21802;-62
2021/09/10 08:44:42;;;;;;;7.62;4.37;;;;;;;25.64;51.64;99495.96;1720579;80;21739;-62
2021/09/10 08:47:12;;;;;;;23.87;6.22;;;;;;;25.72;51.88;99498.28;1736495;80;20887;-63
2021/09/10 08:49:41;;;;;;;17.37;4.45;;;;;;;25.86;51.79;99496.22;1737565;80;21009;-61
2021/09/10 08:52:09;;;;;;;18.57;4.80;;;;;;;26.00;51.77;99502.66;1739564;80;21033;-61
2021/09/10 08:54:36;;;;;;;15.85;4.42;;;;;;;26.06;51.09;99502.77;1750407;80;20996;-61
2021/09/10 08:57:04;;;;;;;14.58;4.87;;;;;;;25.94;50.96;99498.84;1752660;80;21452;-61
2021/09/10 08:59:32;;;;;;;18.27;4.10;;;;;;;25.94;50.85;99501.52;1743351;80;20969;-63
2021/09/10 09:02:00;;;;;;;17.98;5.05;;;;;;;25.97;50.70;99503.84;1737131;82;21138;-62
2021/09/10 09:04:38;;;;;;;8.45;4.25;;;;;;;25.92;50.49;99500.86;1737733;81;20863;-62
2021/09/10 09:07:08;;;;;;;15.43;4.90;;;;;;;25.94;50.28;99504.20;1734134;81;21465;-63
2021/09/10 09:09:42;;;;;;;7.42;4.05;;;;;;;25.92;50.00;99498.18;1734825;81;20928;-63
2021/09/10 09:12:29;;;;;;;8.15;4.42;;;;;;;25.81;49.62;99497.22;1676999;83;20907;-63
2021/09/10 09:15:05;;;;;;;11.35;4.03;;;;;;;25.66;49.49;99510.00;1677607;83;21760;-62
2021/09/10 09:17:41;;;;;;;15.50;5.12;;;;;;;25.59;49.38;99506.34;1729713;81;21543;-63
2021/09/10 09:20:25;;;;;;;6.23;4.13;;;;;;;25.62;49.25;99507.33;1735955;80;20876;-62
2021/09/10 09:23:01;;;;;;;23.80;4.97;;;;;;;25.62;49.25;99507.33;1729753;80;22248;-63
2021/09/10 09:25:41;;;;;;;25.25;5.62;;;;;;;25.56;48.94;99509.37;1734393;81;20907;-62
2021/09/10 09:28:29;;;;;;;6.00;4.08;;;;;;;25.58;48.91;99512.70;1733585;81;21052;-63
2021/09/10 09:31:06;;;;;;;10.48;5.20;;;;;;;25.57;48.57;99509.72;1737711;81;20904;-62
2021/09/10 09:33:37;;;;;;;8.35;4.17;;;;;;;25.60;48.83;99512.04;1738297;81;20887;-62
2021/09/10 09:36:06;;;;;;;31.48;6.03;;;;;;;25.64;48.59;99501.31;1733519;81;21881;-64
2021/09/10 09:38:36;;;;;;;26.93;6.40;;;;;;;25.64;48.39;99505.32;1729610;81;21507;-62
2021/09/10 09:41:11;;;;;;;19.65;5.92;;;;;;;25.65;48.42;99501.66;1702435;82;22795;-62
2021/09/10 09:43:45;;;;;;;13.48;5.10;;;;;;;25.77;48.36;99499.92;1731227;81;20934;-62
2021/09/10 09:46:16;;;;;;;21.07;6.20;;;;;;;25.82;48.28;99497.53;1727815;81;20873;-64
2021/09/10 09:48:46;;;;;;;21.20;6.08;;;;;;;25.88;48.28;99499.05;1729324;81;20904;-63
2021/09/10 09:51:17;;;;;;;7.03;4.60;;;;;;;25.90;47.96;99496.18;1731576;82;20950;-64
2021/09/10 09:53:45;;;;;;;12.47;4.75;;;;;;;25.90;47.89;99494.84;1738695;81;21150;-62
2021/09/10 09:56:12;;;;;;;16.55;5.70;;;;;;;25.87;47.77;99495.20;1738943;81;20917;-62
2021/09/10 09:58:41;;;;;;;16.90;5.20;;;;;;;25.93;47.96;99494.48;1737522;80;20952;-63
2021/09/10 10:01:12;;;;;;;12.98;4.47;;;;;;;25.95;47.52;99497.83;1722705;81;21004;-63
2021/09/10 10:03:44;;;;;;;8.48;4.35;;;;;;;25.94;47.70;99496.68;1744492;80;21484;-63
2021/09/10 10:06:24;;;;;;;9.55;4.72;;;;;;;25.97;47.59;99494.98;1744148;80;21112;-63
2021/09/10 10:09:15;;;;;;;8.65;5.17;;;;;;;25.98;47.50;99497.47;1739557;80;20940;-62
2021/09/10 10:11:48;;;;;;;10.53;4.87;;;;;;;26.02;47.69;99498.80;1743054;80;20967;-63
2021/09/10 10:14:31;;;;;;;10.28;4.65;;;;;;;26.07;47.56;99500.41;1742669;80;20912;-63
2021/09/10 10:17:01;;;;;;;18.15;4.50;;;;;;;26.12;47.47;99498.03;1744495;80;21040;-63
2021/09/10 10:19:37;;;;;;;10.45;4.50;;;;;;;26.19;47.41;99493.33;1745861;80;21041;-63
2021/09/10 10:22:10;;;;;;;9.95;5.12;;;;;;;26.24;47.21;99490.92;1742480;81;20916;-62
2021/09/10 10:24:58;;;;;;;7.87;4.37;;;;;;;26.21;47.09;99497.97;1746112;80;20975;-62
2021/09/10 10:27:45;;;;;;;11.18;4.33;;;;;;;26.19;46.87;99497.34;1741818;80;20878;-63
2021/09/10 10:30:41;;;;;;;10.38;3.90;;;;;;;26.16;46.96;99490.98;1746025;80;20937;-62
2021/09/10 10:33:26;;;;;;;9.58;4.30;;;;;;;26.17;46.95;99489.99;1740850;80;21516;-63
2021/09/10 10:35:54;;;;;;;13.38;4.33;;;;;;;26.15;46.54;99497.36;1744372;80;20907;-62
2021/09/10 10:38:21;;;;;;;13.13;4.70;;;;;;;26.06;46.50;99494.73;1743424;81;20904;-63
2021/09/10 10:40:50;;;;;;;15.72;4.65;;;;;;;26.10;46.51;99492.05;1748739;80;20984;-63
2021/09/10 10:43:29;;;;;;;17.40;4.67;;;;;;;26.11;46.39;99492.36;1748426;81;20904;-63
2021/09/10 10:46:07;;;;;;;5.28;3.83;;;;;;;26.09;46.30;99491.70;1745312;80;21017;-64
2021/09/10 10:48:44;;;;;;;8.53;4.45;;;;;;;26.14;46.27;99489.02;1748286;80;21503;-63
2021/09/10 10:51:22;;;;;;;7.67;3.70;;;;;;;26.10;46.08;99485.36;1745203;80;20990;-63
2021/09/10 10:53:58;;;;;;;9.28;4.42;;;;;;;26.08;46.05;99484.70;1745715;80;21571;-62
2021/09/10 10:56:42;;;;;;;8.30;4.37;;;;;;;26.05;46.20;99482.89;1693352;83;20958;-62
2021/09/10 10:59:22;;;;;;;9.23;4.37;;;;;;;26.14;46.11;99486.34;1705066;82;21094;-62
2021/09/10 11:02:25;;;;;;;8.23;4.25;;;;;;;26.15;45.86;99479.45;1697060;82;20957;-61
2021/09/10 11:04:53;;;;;;;23.07;5.05;;;;;;;26.20;45.92;99481.60;1694959;82;20925;-63
2021/09/10 11:07:21;;;;;;;23.65;5.67;;;;;;;26.18;45.86;99479.61;1664195;83;21471;-63
2021/09/10 11:10:18;;;;;;;12.05;3.92;;;;;;;26.20;45.88;99479.75;1700926;82;21859;-63
2021/09/10 11:12:45;;;;;;;12.75;4.40;;;;;;;26.29;45.79;99477.84;1670031;83;21284;-61
2021/09/10 11:15:32;;;;;;;20.57;4.70;;;;;;;26.37;45.65;99483.13;1699744;82;21001;-63
2021/09/10 11:18:13;;;;;;;17.70;5.33;;;;;;;26.39;45.61;99481.11;1694734;82;20905;-63
2021/09/10 11:20:45;;;;;;;31.20;5.97;;;;;;;26.35;45.40;99478.45;1692026;82;21498;-62
2021/09/10 11:23:28;;;;;;;13.95;5.17;;;;;;;26.33;45.44;99482.66;1700991;82;20939;-63
2021/09/10 11:25:57;;;;;;;21.40;5.55;;;;;;;26.35;45.36;99479.79;1701348;82;21036;-62
2021/09/10 11:28:28;;;;;;;22.27;5.67;;;;;;;26.35;45.27;99474.44;1701257;82;20959;-62
2021/09/10 11:30:55;;;;;;;13.93;4.50;;;;;;;26.38;45.34;99479.43;1695784;82;21529;-61
2021/09/10 11:33:23;;;;;;;6.50;4.25;;;;;;;26.41;45.17;99480.44;1680361;83;21438;-62
2021/09/10 11:35:54;;;;;;;6.47;4.30;;;;;;;26.40;45.03;99478.75;1696812;82;21095;-62